Time;durP1;ratioP1;P1;durP2;ratioP2;P2;SDS_P1;SDS_P2;PMS_P1;PMS_P2;Temp;Humidity;BMP_temperature;BMP_pressure;BME280_temperature;BME280_humidity;BME280_pressure;Samples;Min_cycle;Max_cycle;Signal;HPM_P1;HPM_P2
2021/10/08 00:01:59;;;;;;;49.17;20.20;;;;;;;8.66;100.00;102946.66;5185772;28;20030;-68
2021/10/08 00:04:30;;;;;;;42.03;19.48;;;;;;;8.63;100.00;102950.25;5187623;28;20538;-69
2021/10/08 00:07:02;;;;;;;41.17;18.48;;;;;;;8.62;100.00;102948.56;5184111;28;20041;-68
2021/10/08 00:09:34;;;;;;;58.38;20.25;;;;;;;8.55;100.00;102941.91;5183867;28;20390;-68
2021/10/08 00:12:07;;;;;;;47.53;19.88;;;;;;;8.56;100.00;102953.19;5186488;28;20035;-68
2021/10/08 00:14:38;;;;;;;;;;;;;;;8.97;100.00;102948.78;5186109;28;20082;-68
2021/10/08 00:17:11;;;;;;;44.10;19.67;;;;;;;8.61;100.00;102951.25;5187497;28;20454;-68
2021/10/08 00:19:42;;;;;;;40.97;19.23;;;;;;;8.58;100.00;102946.16;5188033;28;20488;-67
2021/10/08 00:22:13;;;;;;;57.20;20.63;;;;;;;8.56;100.00;102947.97;5185068;28;20034;-68
2021/10/08 00:24:45;;;;;;;103.35;22.38;;;;;;;8.51;100.00;102950.78;5190353;28;20022;-68
2021/10/08 00:27:16;;;;;;;44.90;19.52;;;;;;;8.46;100.00;102952.75;5186680;28;20045;-68
2021/10/08 00:29:47;;;;;;;87.57;20.38;;;;;;;8.48;100.00;102956.97;5188401;28;20061;-68
2021/10/08 00:32:19;;;;;;;63.97;20.98;;;;;;;8.53;100.00;102959.41;5186029;28;20088;-68
2021/10/08 00:34:50;;;;;;;63.15;20.23;;;;;;;8.54;100.00;102961.13;5185738;28;20084;-67
2021/10/08 00:37:21;;;;;;;54.72;20.13;;;;;;;8.53;100.00;102962.03;5188368;28;20114;-68
2021/10/08 00:39:53;;;;;;;46.40;20.70;;;;;;;8.55;100.00;102964.56;5184563;28;20082;-68
2021/10/08 00:42:26;;;;;;;64.95;20.27;;;;;;;8.55;100.00;102959.34;5177616;28;20065;-69
2021/10/08 00:44:57;;;;;;;78.15;20.73;;;;;;;8.50;100.00;102957.78;5188657;28;20049;-68
2021/10/08 00:47:29;;;;;;;46.63;19.33;;;;;;;8.57;100.00;102966.22;5192226;28;20487;-68
2021/10/08 00:50:00;;;;;;;28.73;18.55;;;;;;;8.61;100.00;102959.94;5191549;28;20479;-69
2021/10/08 00:52:31;;;;;;;56.50;19.42;;;;;;;8.46;100.00;102960.59;5186845;28;20034;-68
2021/10/08 00:55:04;;;;;;;54.63;19.40;;;;;;;8.55;100.00;102957.56;5189342;28;20045;-68
2021/10/08 00:57:35;;;;;;;54.27;19.43;;;;;;;8.50;100.00;102960.38;5190297;28;20408;-68
2021/10/08 01:00:07;;;;;;;41.33;19.33;;;;;;;8.51;100.00;102958.63;5188999;28;20300;-67
2021/10/08 01:02:38;;;;;;;65.65;19.67;;;;;;;8.45;100.00;102967.59;5188256;28;20512;-68
2021/10/08 01:05:10;;;;;;;38.05;19.48;;;;;;;8.48;100.00;102966.59;5188792;28;20540;-68
2021/10/08 01:07:41;;;;;;;51.45;19.85;;;;;;;8.38;100.00;102965.28;5190140;28;20114;-68
2021/10/08 01:10:13;;;;;;;44.38;18.30;;;;;;;8.29;100.00;102949.03;5188581;28;20448;-67
2021/10/08 01:12:44;;;;;;;49.28;18.73;;;;;;;8.35;100.00;102962.78;5191347;28;20026;-67
2021/10/08 01:15:15;;;;;;;29.42;18.42;;;;;;;8.39;100.00;102964.38;5188286;28;20038;-69
2021/10/08 01:17:53;;;;;;;42.67;19.10;;;;;;;8.37;100.00;102961.84;5191742;28;20026;-68
2021/10/08 01:20:25;;;;;;;35.40;19.27;;;;;;;8.34;100.00;102961.06;5186563;28;20369;-67
2021/10/08 01:23:00;;;;;;;55.15;19.38;;;;;;;8.30;100.00;102968.19;5187511;28;20026;-68
2021/10/08 01:25:34;;;;;;;41.67;19.23;;;;;;;8.27;100.00;102970.91;5187544;28;20061;-68
2021/10/08 01:28:06;;;;;;;35.22;19.05;;;;;;;8.22;100.00;102971.13;5188210;28;20034;-67
2021/10/08 01:30:37;;;;;;;44.73;19.47;;;;;;;8.21;100.00;102960.72;5187626;28;20069;-67
2021/10/08 01:33:09;;;;;;;40.42;19.67;;;;;;;8.22;100.00;102962.41;5184851;28;20113;-68
2021/10/08 01:35:40;;;;;;;26.67;18.70;;;;;;;8.22;100.00;102968.50;5189194;28;20054;-68
2021/10/08 01:38:11;;;;;;;39.17;19.60;;;;;;;8.15;100.00;102963.59;5187973;28;20112;-68
2021/10/08 01:40:43;;;;;;;37.75;18.85;;;;;;;8.16;100.00;102968.75;5189642;28;20027;-68
2021/10/08 01:43:14;;;;;;;41.63;19.50;;;;;;;8.14;100.00;102972.31;5191242;28;20128;-67
2021/10/08 01:45:45;;;;;;;38.22;18.83;;;;;;;8.18;100.00;102972.16;5191357;28;20030;-68
2021/10/08 01:48:17;;;;;;;38.72;19.45;;;;;;;8.14;100.00;102973.16;5184415;28;20049;-68
2021/10/08 01:50:48;;;;;;;37.67;18.90;;;;;;;8.10;100.00;102963.75;5186710;28;20121;-68
2021/10/08 01:53:19;;;;;;;32.35;17.60;;;;;;;8.12;100.00;102963.72;5189102;28;20026;-68
2021/10/08 01:55:51;;;;;;;46.30;19.08;;;;;;;8.04;100.00;102957.03;5190037;28;20077;-69
2021/10/08 01:58:23;;;;;;;27.45;17.63;;;;;;;8.09;100.00;102963.81;5188872;28;20030;-68
2021/10/08 02:00:54;;;;;;;23.80;18.23;;;;;;;8.12;100.00;102964.56;5187018;28;20488;-69
2021/10/08 02:03:25;;;;;;;39.10;19.00;;;;;;;8.03;100.00;102957.97;5188390;28;20031;-68
2021/10/08 02:05:57;;;;;;;35.65;19.00;;;;;;;8.07;100.00;102973.47;5187394;28;20026;-68
2021/10/08 02:08:28;;;;;;;79.97;18.65;;;;;;;8.03;100.00;102965.78;5190110;28;20113;-68
2021/10/08 02:10:59;;;;;;;87.57;19.63;;;;;;;7.96;100.00;102966.94;5187701;28;20045;-68
2021/10/08 02:13:30;;;;;;;48.38;18.27;;;;;;;7.95;100.00;102965.22;5184767;28;20026;-69
2021/10/08 02:16:03;;;;;;;44.85;17.60;;;;;;;7.99;100.00;102969.44;5185184;28;20759;-68
2021/10/08 02:18:34;;;;;;;112.50;20.10;;;;;;;7.97;100.00;102967.78;5187869;28;20082;-69
2021/10/08 02:21:06;;;;;;;67.47;17.50;;;;;;;8.00;100.00;102958.06;5188239;28;20313;-68
2021/10/08 02:23:37;;;;;;;103.03;18.60;;;;;;;7.91;100.00;102966.25;5184532;28;20507;-68
2021/10/08 02:26:08;;;;;;;90.55;18.23;;;;;;;7.92;100.00;102957.53;5187567;28;20026;-67
2021/10/08 02:28:40;;;;;;;98.68;20.05;;;;;;;7.89;100.00;102955.03;5187126;28;20476;-68
2021/10/08 02:31:12;;;;;;;127.82;19.95;;;;;;;7.86;100.00;102956.91;5186900;28;20097;-68
2021/10/08 02:33:43;;;;;;;179.23;20.45;;;;;;;7.75;100.00;102952.13;5184967;28;20074;-68
2021/10/08 02:36:15;;;;;;;67.00;17.65;;;;;;;7.84;100.00;102953.50;5188680;28;20126;-68
2021/10/08 02:38:46;;;;;;;60.00;18.95;;;;;;;7.87;100.00;102956.84;5187609;28;20404;-68
2021/10/08 02:41:18;;;;;;;87.18;19.08;;;;;;;7.79;100.00;102949.31;5187895;28;20038;-68
2021/10/08 02:43:49;;;;;;;126.15;20.48;;;;;;;7.79;100.00;102956.31;5187193;28;20085;-68
2021/10/08 02:46:21;;;;;;;48.22;17.50;;;;;;;7.85;100.00;102953.47;5187773;28;20038;-68
2021/10/08 02:48:52;;;;;;;93.10;17.80;;;;;;;7.74;100.00;102953.88;5189635;28;20084;-68
2021/10/08 02:51:24;;;;;;;61.97;18.33;;;;;;;7.78;100.00;102954.63;5187064;28;20052;-68
2021/10/08 02:53:55;;;;;;;45.30;17.95;;;;;;;7.74;100.00;102953.88;5186189;28;20022;-68
2021/10/08 02:56:29;;;;;;;67.32;18.40;;;;;;;7.75;100.00;102959.94;5184754;28;20037;-67
2021/10/08 02:59:00;;;;;;;68.47;19.20;;;;;;;7.66;100.00;102961.16;5189663;28;20093;-68
2021/10/08 03:01:32;;;;;;;80.15;17.90;;;;;;;7.66;100.00;102950.72;5188660;28;20022;-69
2021/10/08 03:04:04;;;;;;;40.80;17.83;;;;;;;7.71;100.00;102956.59;5186508;28;20026;-68
2021/10/08 03:06:36;;;;;;;79.05;18.73;;;;;;;7.67;100.00;102962.00;5186595;28;20595;-68
2021/10/08 03:09:07;;;;;;;70.57;18.40;;;;;;;7.61;100.00;102963.06;5186863;28;20129;-68
2021/10/08 03:11:39;;;;;;;39.83;17.52;;;;;;;7.58;100.00;102960.63;5185200;28;20030;-68
2021/10/08 03:14:10;;;;;;;47.95;18.95;;;;;;;7.64;100.00;102957.75;5186794;28;20095;-69
2021/10/08 03:16:41;;;;;;;82.90;18.52;;;;;;;7.59;100.00;102958.84;5184424;28;20500;-68
2021/10/08 03:19:13;;;;;;;70.72;18.58;;;;;;;7.59;100.00;102961.44;5182812;28;20122;-68
2021/10/08 03:21:44;;;;;;;39.38;17.60;;;;;;;7.57;100.00;102959.72;5188132;28;20116;-68
2021/10/08 03:24:16;;;;;;;63.92;17.85;;;;;;;7.53;100.00;102968.59;5186923;28;20026;-68
2021/10/08 03:26:47;;;;;;;50.15;16.98;;;;;;;7.56;100.00;102963.25;5184889;28;20034;-68
2021/10/08 03:29:18;;;;;;;65.25;17.75;;;;;;;7.54;100.00;102967.69;5185618;28;20183;-67
2021/10/08 03:31:49;;;;;;;93.45;18.20;;;;;;;7.45;100.00;102965.41;5183974;28;20038;-68
2021/10/08 03:34:21;;;;;;;104.40;18.17;;;;;;;7.41;100.00;102969.06;5185945;28;20110;-67
2021/10/08 03:36:55;;;;;;;42.13;16.15;;;;;;;7.49;100.00;102966.16;5185934;28;20041;-68
2021/10/08 03:39:30;;;;;;;56.03;17.45;;;;;;;7.48;100.00;102967.91;5183490;28;20089;-68
2021/10/08 03:42:02;;;;;;;71.90;16.25;;;;;;;7.40;100.00;102966.53;5184131;28;20396;-68
2021/10/08 03:44:37;;;;;;;36.95;16.70;;;;;;;7.54;100.00;102962.47;5185401;28;20038;-68
2021/10/08 03:47:15;;;;;;;41.15;16.60;;;;;;;7.51;100.00;102965.19;5185142;28;20061;-69
2021/10/08 03:49:47;;;;;;;27.00;16.45;;;;;;;7.56;100.00;102973.69;5184863;28;20053;-68
2021/10/08 03:52:18;;;;;;;72.63;16.90;;;;;;;7.53;100.00;102979.03;5187483;28;20030;-68
2021/10/08 03:54:49;;;;;;;108.93;18.65;;;;;;;7.47;100.00;102968.84;5187201;28;20039;-69
2021/10/08 03:57:21;;;;;;;96.20;17.70;;;;;;;7.42;100.00;102965.53;5188611;28;20026;-67
2021/10/08 03:59:52;;;;;;;175.98;20.60;;;;;;;7.43;100.00;102977.69;5191158;28;20511;-67
2021/10/08 04:02:23;;;;;;;73.93;18.35;;;;;;;7.45;100.00;102977.63;5189362;28;20544;-68
2021/10/08 04:04:54;;;;;;;80.18;18.00;;;;;;;7.42;100.00;102968.13;5188565;28;20493;-68
2021/10/08 04:07:26;;;;;;;61.00;17.35;;;;;;;7.45;100.00;102970.63;5189021;28;20497;-68
2021/10/08 04:09:57;;;;;;;37.20;16.58;;;;;;;7.50;100.00;102976.56;5188304;28;20054;-68
2021/10/08 04:12:28;;;;;;;59.88;16.67;;;;;;;7.48;100.00;102973.13;5192073;28;20034;-67
2021/10/08 04:15:00;;;;;;;101.75;17.80;;;;;;;7.44;100.00;102975.94;5190241;28;20110;-68
2021/10/08 04:17:31;;;;;;;58.00;17.20;;;;;;;7.45;100.00;102973.25;5190080;28;20069;-68
2021/10/08 04:20:03;;;;;;;94.35;17.38;;;;;;;7.45;100.00;102978.47;5190235;28;20022;-68
2021/10/08 04:22:34;;;;;;;88.45;17.38;;;;;;;7.43;100.00;102980.28;5193915;28;20078;-68
2021/10/08 04:25:06;;;;;;;128.60;18.52;;;;;;;7.41;100.00;102984.69;5187222;28;20098;-67
2021/10/08 04:27:37;;;;;;;64.00;16.90;;;;;;;7.44;100.00;102984.59;5186391;28;20042;-67
2021/10/08 04:30:09;;;;;;;128.10;17.92;;;;;;;7.43;100.00;102985.50;5191830;28;20435;-69
2021/10/08 04:32:40;;;;;;;180.80;21.15;;;;;;;7.32;100.00;102985.91;5189903;28;20053;-68
2021/10/08 04:35:11;;;;;;;143.90;19.25;;;;;;;7.31;100.00;102986.81;5189596;28;20149;-68
2021/10/08 04:37:43;;;;;;;40.75;16.35;;;;;;;7.34;100.00;102990.19;5186109;28;20034;-67
2021/10/08 04:40:15;;;;;;;79.45;17.38;;;;;;;7.38;100.00;102997.84;5190361;28;20025;-69
2021/10/08 04:42:46;;;;;;;94.55;17.48;;;;;;;7.33;100.00;102986.75;5190115;28;20030;-69
2021/10/08 04:45:17;;;;;;;119.20;17.48;;;;;;;7.32;100.00;102988.50;5191047;28;20484;-67
2021/10/08 04:47:49;;;;;;;136.38;17.80;;;;;;;7.27;100.00;102984.34;5188631;28;20038;-68
2021/10/08 04:50:20;;;;;;;84.00;15.77;;;;;;;7.20;100.00;102988.13;5188422;28;20022;-68
2021/10/08 04:52:52;;;;;;;110.70;16.75;;;;;;;7.17;100.00;102986.47;5189228;28;20030;-68
2021/10/08 04:55:23;;;;;;;55.95;16.02;;;;;;;7.16;100.00;102986.50;5192150;28;20035;-68
2021/10/08 04:57:55;;;;;;;59.45;15.98;;;;;;;7.18;100.00;102987.31;5189630;28;20022;-68
2021/10/08 05:00:26;;;;;;;82.63;16.90;;;;;;;7.18;100.00;102979.50;5190914;28;20022;-68
2021/10/08 05:02:57;;;;;;;92.25;16.55;;;;;;;7.19;100.00;102994.22;5190403;28;20110;-68
2021/10/08 05:05:28;;;;;;;64.57;17.35;;;;;;;7.21;100.00;102997.63;5188766;28;20089;-67
2021/10/08 05:08:00;;;;;;;54.97;16.48;;;;;;;7.21;100.00;102990.66;5189657;28;20033;-69
2021/10/08 05:10:32;;;;;;;79.88;16.33;;;;;;;7.19;100.00;102992.44;5186791;28;20092;-68
2021/10/08 05:13:03;;;;;;;55.22;15.52;;;;;;;7.25;100.00;102996.63;5190048;28;20022;-67
2021/10/08 05:15:34;;;;;;;43.53;15.73;;;;;;;7.31;100.00;102998.97;5188851;28;20029;-68
2021/10/08 05:18:06;;;;;;;92.70;16.02;;;;;;;7.23;100.00;103001.00;5191679;28;20034;-67
2021/10/08 05:20:38;;;;;;;56.15;16.38;;;;;;;7.27;100.00;103003.47;5191233;28;20037;-68
2021/10/08 05:23:09;;;;;;;81.45;15.77;;;;;;;7.19;100.00;103010.69;5188521;28;20039;-67
2021/10/08 05:25:40;;;;;;;46.25;15.07;;;;;;;7.21;100.00;103010.66;5188778;28;20501;-67
2021/10/08 05:28:12;;;;;;;77.97;15.93;;;;;;;7.17;100.00;103003.88;5191141;28;20373;-68
2021/10/08 05:30:43;;;;;;;59.40;15.70;;;;;;;7.17;100.00;103007.31;5191181;28;20392;-68
2021/10/08 05:33:15;;;;;;;93.68;15.52;;;;;;;7.16;100.00;103012.56;5187902;28;20120;-67
2021/10/08 05:35:46;;;;;;;104.10;16.15;;;;;;;7.10;100.00;103005.84;5184973;28;20492;-67
2021/10/08 05:38:18;;;;;;;105.05;15.20;;;;;;;7.03;100.00;103006.94;5189035;28;20455;-67
2021/10/08 05:40:52;;;;;;;78.53;14.80;;;;;;;7.08;100.00;103007.63;5187830;28;20125;-67
2021/10/08 05:43:23;;;;;;;63.08;14.52;;;;;;;7.10;100.00;103007.59;5185185;28;20022;-69
2021/10/08 05:45:55;;;;;;;76.20;15.50;;;;;;;7.16;100.00;103009.97;5183939;28;20022;-68
2021/10/08 05:48:26;;;;;;;98.13;15.05;;;;;;;7.11;100.00;103010.13;5187778;28;20046;-68
2021/10/08 05:50:58;;;;;;;88.07;15.93;;;;;;;7.20;100.00;103012.44;5186273;28;20041;-68
2021/10/08 05:53:29;;;;;;;113.30;15.80;;;;;;;7.12;100.00;103019.66;5187618;28;20035;-68
2021/10/08 05:56:00;;;;;;;122.68;15.95;;;;;;;7.00;100.00;103017.47;5182378;28;20444;-68
2021/10/08 05:58:31;;;;;;;73.57;14.45;;;;;;;7.04;100.00;103019.91;5179885;28;20050;-68
2021/10/08 06:01:03;;;;;;;77.93;15.35;;;;;;;7.00;100.00;103026.13;5184231;28;20023;-68
2021/10/08 06:03:34;;;;;;;101.35;15.20;;;;;;;6.97;100.00;103022.78;5186896;28;20033;-68
2021/10/08 06:06:05;;;;;;;60.30;14.07;;;;;;;6.96;100.00;103015.88;5182749;28;20034;-67
2021/10/08 06:08:37;;;;;;;61.50;13.80;;;;;;;7.03;100.00;103031.25;5183558;28;20054;-68
2021/10/08 06:11:09;;;;;;;77.93;14.70;;;;;;;6.95;100.00;103035.88;5184663;28;20023;-70
2021/10/08 06:13:40;;;;;;;62.20;14.40;;;;;;;6.98;100.00;103027.13;5184071;28;20023;-68
2021/10/08 06:16:11;;;;;;;101.65;15.55;;;;;;;6.96;100.00;103032.38;5185872;28;20041;-68
2021/10/08 06:18:42;;;;;;;60.40;14.10;;;;;;;7.03;100.00;103036.47;5185540;28;20496;-69
2021/10/08 06:21:14;;;;;;;77.15;14.80;;;;;;;7.03;100.00;103049.50;5184378;28;20614;-68
2021/10/08 06:23:45;;;;;;;68.10;14.40;;;;;;;7.00;100.00;103038.31;5189802;28;20023;-68
2021/10/08 06:26:16;;;;;;;93.80;15.88;;;;;;;6.96;100.00;103042.78;5185828;28;20096;-68
2021/10/08 06:28:48;;;;;;;39.20;13.63;;;;;;;7.02;100.00;103041.75;5184850;28;20049;-68
2021/10/08 06:31:19;;;;;;;67.93;14.38;;;;;;;7.01;100.00;103046.13;5192255;28;20119;-68
2021/10/08 06:33:50;;;;;;;47.60;14.05;;;;;;;7.11;100.00;103053.59;5192312;28;20031;-68
2021/10/08 06:36:22;;;;;;;48.53;14.05;;;;;;;7.04;100.00;103045.13;5192410;28;20066;-68
2021/10/08 06:38:53;;;;;;;46.53;13.48;;;;;;;7.12;100.00;103052.69;5191585;28;20076;-68
2021/10/08 06:41:25;;;;;;;44.60;13.55;;;;;;;7.18;100.00;103052.47;5192162;28;20036;-68
2021/10/08 06:43:56;;;;;;;29.17;15.10;;;;;;;7.29;100.00;103051.19;5184295;28;20653;-68
2021/10/08 06:46:27;;;;;;;38.65;15.52;;;;;;;7.35;100.00;103055.34;5192117;28;20030;-68
2021/10/08 06:48:59;;;;;;;93.85;17.38;;;;;;;7.31;100.00;103051.13;5191787;28;20034;-68
2021/10/08 06:51:30;;;;;;;201.88;19.77;;;;;;;7.24;100.00;103053.13;5191892;28;20119;-68
2021/10/08 06:54:01;;;;;;;67.85;14.63;;;;;;;7.30;100.00;103049.44;5190256;28;20037;-68
2021/10/08 06:56:33;;;;;;;49.10;15.23;;;;;;;7.35;100.00;103060.56;5190139;28;20700;-68
2021/10/08 06:59:04;;;;;;;37.67;14.70;;;;;;;7.37;100.00;103055.28;5187380;28;20033;-68
2021/10/08 07:01:35;;;;;;;30.20;14.48;;;;;;;7.47;100.00;103062.72;5190573;28;20070;-68
2021/10/08 07:04:07;;;;;;;33.05;13.70;;;;;;;7.54;100.00;103066.81;5188360;28;20026;-68
2021/10/08 07:06:38;;;;;;;45.97;13.95;;;;;;;7.50;100.00;103062.63;5189656;28;20547;-69
2021/10/08 07:09:09;;;;;;;55.80;13.05;;;;;;;7.49;100.00;103060.06;5189129;28;20535;-68
2021/10/08 07:11:41;;;;;;;45.13;13.38;;;;;;;7.53;100.00;103070.31;5193507;28;20518;-68
2021/10/08 07:14:12;;;;;;;24.48;12.15;;;;;;;7.63;100.00;103062.16;5189512;28;20026;-69
2021/10/08 07:16:43;;;;;;;27.20;13.90;;;;;;;7.70;100.00;103066.25;5191238;28;20514;-70
2021/10/08 07:19:15;;;;;;;51.40;13.80;;;;;;;7.67;100.00;103064.59;5186285;28;20026;-69
2021/10/08 07:21:47;;;;;;;145.48;18.48;;;;;;;7.64;100.00;103066.47;5187718;28;20022;-68
2021/10/08 07:24:18;;;;;;;47.67;14.40;;;;;;;7.78;100.00;103069.44;5186539;28;20022;-69
2021/10/08 07:26:50;;;;;;;157.43;16.60;;;;;;;7.67;100.00;103068.97;5183508;28;21075;-68
2021/10/08 07:29:22;;;;;;;47.97;15.57;;;;;;;7.86;100.00;103075.19;5189122;28;20023;-68
2021/10/08 07:31:53;;;;;;;39.83;14.75;;;;;;;7.87;100.00;103074.28;5185141;28;20472;-69
2021/10/08 07:34:25;;;;;;;58.92;16.55;;;;;;;7.81;100.00;103069.31;5183809;28;20030;-68
2021/10/08 07:36:56;;;;;;;46.80;15.52;;;;;;;7.92;100.00;103072.38;5183088;28;20502;-69
2021/10/08 07:39:27;;;;;;;114.50;17.70;;;;;;;7.94;100.00;103086.19;5180141;28;20022;-69
2021/10/08 07:41:58;;;;;;;75.53;17.60;;;;;;;7.99;100.00;103075.56;5182319;28;20034;-69
2021/10/08 07:44:30;;;;;;;71.07;16.35;;;;;;;8.05;100.00;103078.81;5185788;28;20025;-69
2021/10/08 07:47:01;;;;;;;27.58;16.02;;;;;;;8.09;100.00;103083.91;5181996;28;20503;-69
2021/10/08 07:49:32;;;;;;;118.57;17.23;;;;;;;8.00;100.00;103080.75;5186853;28;20074;-68
2021/10/08 07:52:04;;;;;;;54.13;17.05;;;;;;;8.14;100.00;103089.81;5183937;28;20019;-68
2021/10/08 07:54:36;;;;;;;103.35;17.90;;;;;;;8.11;100.00;103082.13;5185412;28;20039;-68
2021/10/08 07:57:07;;;;;;;57.78;17.75;;;;;;;8.23;100.00;103089.47;5182972;28;20026;-69
2021/10/08 07:59:38;;;;;;;66.93;18.02;;;;;;;8.28;100.00;103090.13;5185757;28;20026;-68
2021/10/08 08:02:09;;;;;;;46.63;17.08;;;;;;;8.38;100.00;103085.44;5184839;28;20084;-68
2021/10/08 08:04:41;;;;;;;97.82;17.73;;;;;;;8.37;100.00;103083.69;5182953;28;20026;-68
2021/10/08 08:07:12;;;;;;;52.05;17.00;;;;;;;8.46;100.00;103089.44;5184071;28;20026;-68
2021/10/08 08:09:43;;;;;;;71.70;17.50;;;;;;;8.46;100.00;103089.44;5180544;28;20051;-68
2021/10/08 08:12:15;;;;;;;76.35;17.75;;;;;;;8.54;100.00;103089.13;5182060;28;20443;-68
2021/10/08 08:14:46;;;;;;;49.63;17.77;;;;;;;8.60;100.00;103094.13;5180067;28;20022;-69
2021/10/08 08:17:19;;;;;;;105.22;18.95;;;;;;;8.60;100.00;103088.91;5184530;28;20113;-69
2021/10/08 08:19:50;;;;;;;54.15;17.80;;;;;;;8.68;100.00;103099.03;5181979;28;20031;-69
2021/10/08 08:22:21;;;;;;;36.40;17.65;;;;;;;8.80;100.00;103090.69;5183581;28;20049;-69
2021/10/08 08:24:53;;;;;;;38.58;18.30;;;;;;;8.88;100.00;103090.38;5180818;28;20473;-69
2021/10/08 08:27:24;;;;;;;106.13;20.55;;;;;;;8.85;100.00;103093.94;5180852;28;20034;-69
2021/10/08 08:29:56;;;;;;;94.63;19.98;;;;;;;8.88;100.00;103085.97;5182452;28;20023;-69
2021/10/08 08:32:27;;;;;;;84.70;19.90;;;;;;;8.91;100.00;103090.25;5180509;28;20039;-69
2021/10/08 08:34:59;;;;;;;82.88;20.20;;;;;;;8.81;100.00;103088.91;5180309;28;20521;-69
2021/10/08 08:37:31;;;;;;;154.95;21.08;;;;;;;8.81;100.00;103094.13;5184638;28;20041;-70
2021/10/08 08:40:06;;;;;;;64.25;20.02;;;;;;;8.98;100.00;103094.31;5182302;28;20030;-69
2021/10/08 08:42:37;;;;;;;71.53;21.88;;;;;;;9.05;100.00;103089.63;5186061;28;20065;-69
2021/10/08 08:45:09;;;;;;;77.85;21.00;;;;;;;9.10;100.00;103090.31;5189392;28;20042;-69
2021/10/08 08:47:40;;;;;;;98.10;22.25;;;;;;;9.06;100.00;103093.97;5187361;28;20041;-69
2021/10/08 08:50:14;;;;;;;48.72;20.67;;;;;;;9.21;100.00;103085.47;5188097;28;20022;-69
2021/10/08 08:52:46;;;;;;;48.78;19.33;;;;;;;9.30;100.00;103084.22;5185963;28;20031;-71
2021/10/08 08:55:17;;;;;;;37.38;20.23;;;;;;;9.36;100.00;103092.66;5185464;28;20029;-69
2021/10/08 08:57:48;;;;;;;65.07;19.65;;;;;;;9.38;100.00;103088.19;5186075;28;20038;-69
2021/10/08 09:00:21;;;;;;;68.30;18.40;;;;;;;9.36;100.00;103092.66;5185377;28;20031;-69
2021/10/08 09:03:05;;;;;;;54.17;20.27;;;;;;;9.60;100.00;103093.31;5186167;28;20031;-69
2021/10/08 09:05:36;;;;;;;76.40;19.33;;;;;;;9.54;100.00;103095.34;5182755;28;20055;-69
2021/10/08 09:08:09;;;;;;;45.30;19.35;;;;;;;9.64;100.00;103094.88;5189562;28;20397;-69
2021/10/08 09:10:44;;;;;;;44.45;19.30;;;;;;;9.70;100.00;103092.00;5185742;28;20031;-69
2021/10/08 09:13:16;;;;;;;72.20;19.08;;;;;;;9.65;100.00;103091.34;5191555;28;20077;-69
2021/10/08 09:15:53;;;;;;;52.92;19.85;;;;;;;9.74;100.00;103092.72;5189011;28;20026;-69
2021/10/08 09:18:26;;;;;;;88.70;21.40;;;;;;;9.71;100.00;103088.47;5189895;28;20034;-69
2021/10/08 09:21:10;;;;;;;31.25;18.80;;;;;;;9.92;100.00;103088.38;5189299;28;20113;-69
2021/10/08 09:23:47;;;;;;;40.67;20.42;;;;;;;9.97;100.00;103091.66;5190573;28;20085;-69
2021/10/08 09:26:23;;;;;;;29.73;21.10;;;;;;;10.04;100.00;103090.47;5187814;28;20038;-69
2021/10/08 09:29:03;;;;;;;27.45;21.00;;;;;;;10.22;100.00;103088.72;5186757;28;20030;-69
2021/10/08 09:31:38;;;;;;;37.72;20.92;;;;;;;10.15;100.00;103084.69;5187124;28;20037;-69
2021/10/08 09:34:11;;;;;;;33.67;21.42;;;;;;;10.24;100.00;103090.34;5189658;28;20377;-69
2021/10/08 09:36:47;;;;;;;34.65;22.42;;;;;;;10.35;100.00;103089.88;5189687;28;20374;-69
2021/10/08 09:39:29;;;;;;;46.95;20.33;;;;;;;10.43;100.00;103090.34;5188888;28;20026;-69
2021/10/08 09:42:03;;;;;;;35.37;23.27;;;;;;;10.51;100.00;103090.00;5186480;28;20026;-69
2021/10/08 09:44:51;;;;;;;36.63;23.45;;;;;;;10.62;100.00;103092.09;5187373;28;20033;-69
2021/10/08 09:47:25;;;;;;;40.97;24.40;;;;;;;10.55;100.00;103086.28;5191864;28;20026;-69
2021/10/08 09:50:10;;;;;;;34.22;25.40;;;;;;;10.77;100.00;103086.09;5189561;28;20076;-69
2021/10/08 09:52:41;;;;;;;34.88;26.40;;;;;;;10.78;100.00;103089.56;5187778;28;20062;-70
2021/10/08 09:55:12;;;;;;;35.80;28.42;;;;;;;10.85;100.00;103083.94;5184850;28;20058;-70
2021/10/08 09:57:46;;;;;;;36.67;27.27;;;;;;;10.88;100.00;103085.56;5183899;28;20046;-71
2021/10/08 10:00:42;;;;;;;40.38;29.88;;;;;;;11.11;100.00;103089.63;5185526;28;20035;-70
2021/10/08 10:03:16;;;;;;;42.38;30.52;;;;;;;11.18;100.00;103086.63;5185828;28;20417;-70
2021/10/08 10:05:47;;;;;;;46.50;34.05;;;;;;;11.18;100.00;103077.91;5181791;28;20034;-69
2021/10/08 10:08:18;;;;;;;42.53;32.15;;;;;;;11.12;100.00;103083.44;5183385;28;20061;-71
2021/10/08 10:10:50;;;;;;;48.08;35.28;;;;;;;11.18;100.00;103072.66;5182376;28;20121;-70
2021/10/08 10:13:22;;;;;;;47.80;34.90;;;;;;;11.22;100.00;103081.22;5182451;28;20060;-70
2021/10/08 10:15:53;;;;;;;50.10;35.83;;;;;;;11.24;100.00;103079.34;5182327;28;20022;-69
2021/10/08 10:18:26;;;;;;;50.97;35.92;;;;;;;11.26;100.00;103088.00;5184512;28;20022;-70
2021/10/08 10:20:58;;;;;;;52.83;38.03;;;;;;;11.30;100.00;103086.91;5184017;28;20529;-70
2021/10/08 10:23:29;;;;;;;51.53;37.90;;;;;;;11.43;100.00;103086.16;5183662;28;20030;-71
2021/10/08 10:26:01;;;;;;;49.85;36.92;;;;;;;11.42;100.00;103086.25;5182088;28;20037;-70
2021/10/08 10:28:33;;;;;;;50.72;39.80;;;;;;;11.61;100.00;103078.25;5186734;28;20069;-71
2021/10/08 10:31:05;;;;;;;55.63;41.70;;;;;;;11.74;100.00;103081.91;5187583;28;20461;-71
2021/10/08 10:33:37;;;;;;;55.95;40.22;;;;;;;11.79;100.00;103077.28;5185060;28;20023;-71
2021/10/08 10:36:32;;;;;;;58.72;42.90;;;;;;;12.06;100.00;103079.34;5184106;28;20084;-72
2021/10/08 10:39:16;;;;;;;55.88;41.95;;;;;;;12.05;100.00;103082.91;5181371;28;20044;-70
2021/10/08 10:41:48;;;;;;;;;;;;;;;12.43;100.00;103079.91;5188250;28;20026;-71
2021/10/08 10:44:25;;;;;;;57.30;41.47;;;;;;;12.34;100.00;103079.47;5183029;28;20047;-70
2021/10/08 10:47:27;;;;;;;54.55;41.97;;;;;;;12.57;100.00;103077.31;5184838;28;20026;-70
2021/10/08 10:50:13;;;;;;;53.00;40.80;;;;;;;12.57;100.00;103077.31;5184303;28;20037;-70
2021/10/08 10:52:59;;;;;;;48.17;38.78;;;;;;;12.60;100.00;103070.09;5179474;28;20041;-70
2021/10/08 10:55:32;;;;;;;49.42;39.75;;;;;;;12.63;100.00;103069.94;5183180;28;20035;-69
2021/10/08 10:58:07;;;;;;;48.28;39.38;;;;;;;12.73;100.00;103066.75;5181652;28;20477;-68
2021/10/08 11:00:46;;;;;;;49.45;38.45;;;;;;;12.98;100.00;103058.28;5181629;28;20109;-67
2021/10/08 11:03:29;;;;;;;48.38;38.63;;;;;;;13.04;100.00;103069.28;5174697;28;20027;-68
2021/10/08 11:06:04;;;;;;;;;;;;;;;13.46;100.00;103054.50;5172389;28;20054;-68
2021/10/08 11:09:07;;;;;;;39.88;33.60;;;;;;;13.49;100.00;103051.66;5172851;28;19929;-68
2021/10/08 11:11:38;;;;;;;42.50;32.22;;;;;;;13.46;100.00;103058.91;5173751;28;20378;-68
2021/10/08 11:14:18;;;;;;;37.85;32.17;;;;;;;13.60;100.00;103046.59;5172889;28;20042;-70
2021/10/08 11:16:49;;;;;;;37.55;32.08;;;;;;;13.70;100.00;103046.84;5177487;28;20038;-69
2021/10/08 11:19:38;;;;;;;37.55;31.48;;;;;;;13.90;100.00;103048.19;5181370;28;20027;-68
2021/10/08 11:22:11;;;;;;;34.25;30.55;;;;;;;13.90;100.00;103044.72;5186423;28;20023;-69
2021/10/08 11:24:42;;;;;;;35.58;29.88;;;;;;;14.01;100.00;103035.19;5184433;28;20041;-68
2021/10/08 11:27:13;;;;;;;33.83;29.48;;;;;;;14.01;100.00;103036.97;5174591;28;20089;-68
2021/10/08 11:29:45;;;;;;;34.60;30.02;;;;;;;14.12;100.00;103031.84;5181405;28;20088;-70
2021/10/08 11:32:17;;;;;;;34.63;30.45;;;;;;;14.40;100.00;103033.53;5182178;28;20101;-68